Impacts TAF Board INFO
FOR SITUATIONAL AWARENESS. NOT TO BE USED FOR FLIGHT PLANNING PURPOSES.
IDs:

KHUM - Houma/Terrebonne Arp, LA, US

Issued at 1126 UTC 23 Jun 2018
Updated at 1530 UTC 23 Jun 2018
Potential Impact None Slight Moderate High
Time1447Z 23/16Z 23/17Z 23/18Z 23/19Z 23/20Z 23/21Z 23/22Z 23/23Z 24/00Z 24/01Z 24/02Z 24/03Z 24/04Z>>
Type OBS PRVL PRVL PRVL PRVL PRVL PRVL PRVL PRVL PRVL PRVL PRVL PRVL PRVL
VIS 7 >6 >6 >6 >6 >6 >6 >6 >6 >6 >6 >6 >6 >6
CIG -- 30 30 30 30 30 30 30 30 30 -- -- -- --
Cover SCT BKN BKN BKN BKN BKN BKN BKN BKN BKN SCT SCT SCT SCT
FltCat VFR MVFR MVFR MVFR MVFR MVFR MVFR MVFR MVFR MVFR VFR VFR VFR VFR
WX -- -- -- -- -- -- -- -- -- -- -- -- -- --
WDir 210 210 210 210 210 210 210 210 210 210 190 190 190 190
WSpd 9 9 9 9 9 9 9 9 9 9 7 7 7 7
WGst -- -- -- -- -- -- -- -- -- -- -- -- -- --

Raw TAF
KHUM 231126Z 2312/2412 20004KT P6SM FEW025
  FM231400 21009KT P6SM FEW025 BKN030
  FM240100 19007KT P6SM FEW025 SCT050
  FM240600 15004KT P6SM SKC


Raw METAR
KHUM 231447Z 21009KT 7SM SCT027 31/24 A2997
KHUM 231347Z 22005KT 7SM SCT023 29/25 A2997
KHUM 231247Z 20005KT 7SM FEW022 28/25 A2996

METAR Board
Radar Display
Forecast Discussion

FOR SITUATIONAL AWARENESS. NOT TO BE USED FOR FLIGHT PLANNING PURPOSES.